createdAt,value
2019-02-27T00:00:20.115Z,6.5
2019-02-27T00:01:29.350Z,6.3
2019-02-27T00:02:38.625Z,6.2
2019-02-27T00:03:47.888Z,6.1
2019-02-27T00:04:57.139Z,6
2019-02-27T00:06:06.396Z,6
2019-02-27T00:07:15.665Z,6
2019-02-27T00:08:26.917Z,5.9
2019-02-27T00:09:34.247Z,5.9
2019-02-27T00:10:43.521Z,5.9
2019-02-27T00:11:52.856Z,5.8
2019-02-27T00:13:02.130Z,5.8
2019-02-27T00:14:11.256Z,5.8
2019-02-27T00:15:20.485Z,5.7
2019-02-27T00:16:29.737Z,5.7
2019-02-27T00:17:39.008Z,5.6
2019-02-27T00:18:48.292Z,5.6
2019-02-27T00:19:57.517Z,5.6
2019-02-27T00:21:09.994Z,5.5
2019-02-27T00:22:17.531Z,5.4
2019-02-27T00:23:25.272Z,5.4
2019-02-27T00:24:34.564Z,5.3
2019-02-27T00:25:43.777Z,5.2
2019-02-27T00:26:53.036Z,5.2
2019-02-27T00:28:02.373Z,5.2
2019-02-27T00:29:11.526Z,5.1
2019-02-27T00:30:20.772Z,5.1
2019-02-27T00:31:30.022Z,5.3
2019-02-27T00:32:39.279Z,5.2
2019-02-27T00:33:48.537Z,5.2
2019-02-27T00:34:57.789Z,5.1
2019-02-27T00:36:07.049Z,5
2019-02-27T00:37:18.693Z,5.1
2019-02-27T00:38:25.792Z,5.3
2019-02-27T00:39:34.838Z,5.5
2019-02-27T00:40:44.051Z,5.6
2019-02-27T00:41:53.282Z,5.5
2019-02-27T00:43:02.613Z,5.6
2019-02-27T00:44:11.854Z,5.5
2019-02-27T00:45:21.013Z,5.7
2019-02-27T00:46:30.264Z,5.8
2019-02-27T00:47:39.520Z,5.7
2019-02-27T00:48:48.754Z,5.9
2019-02-27T00:49:58.004Z,6
2019-02-27T00:51:09.597Z,6.2
2019-02-27T00:52:18.223Z,6.3
2019-02-27T00:53:25.756Z,6.3
2019-02-27T00:54:34.988Z,6.4
2019-02-27T00:55:44.240Z,6.4
2019-02-27T00:56:53.514Z,6.4
2019-02-27T00:58:02.766Z,6.3
2019-02-27T00:59:11.998Z,6.4
2019-02-27T01:00:21.260Z,6.4
2019-02-27T01:01:30.505Z,6.4
2019-02-27T01:02:39.790Z,6.4
2019-02-27T01:03:49.016Z,6.4
2019-02-27T01:04:58.290Z,6.4
2019-02-27T01:06:07.516Z,6.4
2019-02-27T01:07:20.176Z,6.4
2019-02-27T01:08:27.472Z,6.4
2019-02-27T01:09:37.179Z,6.5
2019-02-27T01:10:45.273Z,6.4
2019-02-27T01:11:53.793Z,6.4
2019-02-27T01:13:03.139Z,6.3
2019-02-27T01:14:12.289Z,6.3
2019-02-27T01:15:21.541Z,6.3
2019-02-27T01:16:30.800Z,6.4
2019-02-27T01:17:40.235Z,6.4
2019-02-27T01:18:50.850Z,6.4
2019-02-27T01:19:58.546Z,6.6
2019-02-27T01:21:07.805Z,6.6
2019-02-27T01:22:17.055Z,6.6
2019-02-27T01:23:26.368Z,6.7
2019-02-27T01:24:35.615Z,6.6
2019-02-27T01:25:44.836Z,6.6
2019-02-27T01:26:54.096Z,6.6
2019-02-27T01:28:03.380Z,6.6
2019-02-27T01:29:12.598Z,6.6
2019-02-27T01:30:23.810Z,6.6
2019-02-27T01:31:31.159Z,6.6
2019-02-27T01:32:40.371Z,6.5
2019-02-27T01:33:49.630Z,6.4
2019-02-27T01:34:58.904Z,6.3
2019-02-27T01:36:08.172Z,6.3
2019-02-27T01:37:17.485Z,6.3
2019-02-27T01:38:26.649Z,6.3
2019-02-27T01:39:35.923Z,6.4
2019-02-27T01:40:45.158Z,6.4
2019-02-27T01:41:55.239Z,6.5
2019-02-27T01:43:05.721Z,6.6
2019-02-27T01:44:13.629Z,6.6
2019-02-27T01:45:22.185Z,6.7
2019-02-27T01:46:31.449Z,6.7
2019-02-27T01:47:40.698Z,6.7
2019-02-27T01:48:49.948Z,6.7
2019-02-27T01:49:59.204Z,6.7
2019-02-27T01:51:08.469Z,6.7
2019-02-27T01:52:17.724Z,6.6
2019-02-27T01:53:27.002Z,6.5
2019-02-27T01:54:36.272Z,6.5
2019-02-27T01:55:45.505Z,6.5
2019-02-27T01:56:54.769Z,6.4
2019-02-27T01:58:04.105Z,6.5
2019-02-27T01:59:14.003Z,6.4
2019-02-27T02:00:23.234Z,6.4
2019-02-27T02:01:31.811Z,6.4
2019-02-27T02:02:41.148Z,6.4
2019-02-27T02:03:50.322Z,6.4
2019-02-27T02:04:59.579Z,6.5
2019-02-27T02:06:09.793Z,6.5
2019-02-27T02:07:19.030Z,6.4
2019-02-27T02:08:28.291Z,6.3
2019-02-27T02:09:37.574Z,6.3
2019-02-27T02:10:46.805Z,6.3
2019-02-27T02:11:56.067Z,6.3
2019-02-27T02:13:05.324Z,6.3
2019-02-27T02:14:14.591Z,6.3
2019-02-27T02:15:27.060Z,6.3
2019-02-27T02:16:34.301Z,6.4
2019-02-27T02:17:42.403Z,6.5
2019-02-27T02:18:51.635Z,6.5
2019-02-27T02:20:00.918Z,6.6
2019-02-27T02:21:10.587Z,6.5
2019-02-27T02:22:19.825Z,6.4
2019-02-27T02:23:29.086Z,6.2
2019-02-27T02:24:38.344Z,6.1
2019-02-27T02:25:47.638Z,5.9
2019-02-27T02:26:56.872Z,5.8
2019-02-27T02:28:06.132Z,5.8
2019-02-27T02:29:17.858Z,5.9
2019-02-27T02:30:29.131Z,5.9
2019-02-27T02:31:33.951Z,5.9
2019-02-27T02:32:43.193Z,5.9
2019-02-27T02:33:52.526Z,5.9
2019-02-27T02:35:01.698Z,5.8
2019-02-27T02:36:10.950Z,5.8
2019-02-27T02:37:20.209Z,5.8
2019-02-27T02:38:29.468Z,5.8
2019-02-27T02:39:38.744Z,5.8
2019-02-27T02:40:47.969Z,5.8
2019-02-27T02:41:57.226Z,5.8
2019-02-27T02:43:06.480Z,5.8
2019-02-27T02:44:20.580Z,5.7
2019-02-27T02:45:25.000Z,5.7
2019-02-27T02:46:34.246Z,5.7
2019-02-27T02:47:43.486Z,5.7
2019-02-27T02:48:52.746Z,5.7
2019-02-27T02:50:01.999Z,5.7
2019-02-27T02:51:11.239Z,5.7
2019-02-27T02:52:20.578Z,5.6
2019-02-27T02:53:29.770Z,5.6
2019-02-27T02:54:39.011Z,5.6
2019-02-27T02:55:49.194Z,5.6
2019-02-27T02:57:00.451Z,5.7
2019-02-27T02:58:07.733Z,5.6
2019-02-27T02:59:16.015Z,5.6
2019-02-27T03:00:25.247Z,5.6
2019-02-27T03:01:34.528Z,5.7
2019-02-27T03:02:43.778Z,5.7
2019-02-27T03:03:53.009Z,5.7
2019-02-27T03:05:02.281Z,5.7
2019-02-27T03:06:11.525Z,5.6
2019-02-27T03:07:20.743Z,5.6
2019-02-27T03:08:30.009Z,5.5
2019-02-27T03:09:39.245Z,5.3
2019-02-27T03:10:48.489Z,5.2
2019-02-27T03:11:57.742Z,5.2
2019-02-27T03:13:07.376Z,5.1
2019-02-27T03:14:17.528Z,5.1
2019-02-27T03:15:28.360Z,5
2019-02-27T03:16:34.720Z,5
2019-02-27T03:17:43.968Z,4.9
2019-02-27T03:18:53.199Z,4.8
2019-02-27T03:20:02.534Z,4.7
2019-02-27T03:21:11.864Z,4.8
2019-02-27T03:22:20.925Z,4.9
2019-02-27T03:23:30.186Z,4.8
2019-02-27T03:24:39.414Z,4.7
2019-02-27T03:25:48.672Z,4.7
2019-02-27T03:26:57.919Z,4.7
2019-02-27T03:28:07.138Z,4.7
2019-02-27T03:29:17.306Z,4.6
2019-02-27T03:30:33.560Z,4.6
2019-02-27T03:31:34.871Z,4.5
2019-02-27T03:32:44.099Z,4.5
2019-02-27T03:33:53.344Z,4.4
2019-02-27T03:35:02.560Z,4.6
2019-02-27T03:36:11.816Z,4.8
2019-02-27T03:37:21.046Z,5
2019-02-27T03:38:30.273Z,5.1
2019-02-27T03:39:39.494Z,5.2
2019-02-27T03:40:48.952Z,5.2
2019-02-27T03:41:59.291Z,5.3
2019-02-27T03:43:10.390Z,5.4
2019-02-27T03:44:20.183Z,5.4
2019-02-27T03:45:30.586Z,5.4
2019-02-27T03:46:40.396Z,5.4
2019-02-27T03:47:44.161Z,5.5
2019-02-27T03:48:53.349Z,5.5
2019-02-27T03:50:02.602Z,5.5
2019-02-27T03:51:11.959Z,5.4
2019-02-27T03:52:21.056Z,5.4
2019-02-27T03:53:30.302Z,5.5
2019-02-27T03:54:39.648Z,5.5
2019-02-27T03:55:48.763Z,5.5
2019-02-27T03:56:57.989Z,5.6
2019-02-27T03:58:07.264Z,5.5
2019-02-27T03:59:16.560Z,5.5
2019-02-27T04:00:25.712Z,5.5
2019-02-27T04:01:34.967Z,5.5
2019-02-27T04:02:44.197Z,5.5
2019-02-27T04:03:55.211Z,5.5
2019-02-27T04:05:06.815Z,5.4
2019-02-27T04:06:11.908Z,5.5
2019-02-27T04:07:21.205Z,5.5
2019-02-27T04:08:30.391Z,5.5
2019-02-27T04:09:39.656Z,5.5
2019-02-27T04:10:48.883Z,5.5
2019-02-27T04:11:58.197Z,5.5
2019-02-27T04:13:07.422Z,5.5
2019-02-27T04:14:16.588Z,5.5
2019-02-27T04:15:25.832Z,5.5
2019-02-27T04:16:37.784Z,5.5
2019-02-27T04:17:44.315Z,5.5
2019-02-27T04:18:53.620Z,5.5
2019-02-27T04:20:02.829Z,5.5
2019-02-27T04:21:12.155Z,5.4
2019-02-27T04:22:21.282Z,5.4
2019-02-27T04:23:30.519Z,5.3
2019-02-27T04:24:39.769Z,5.3
2019-02-27T04:25:49.018Z,5.4
2019-02-27T04:26:58.370Z,5.4
2019-02-27T04:28:07.481Z,5.4
2019-02-27T04:29:16.723Z,5.4
2019-02-27T04:30:25.966Z,5.4
2019-02-27T04:31:35.208Z,5.3
2019-02-27T04:32:48.560Z,5.3
2019-02-27T04:33:53.695Z,5.3
2019-02-27T04:35:05.830Z,5.4
2019-02-27T04:36:12.653Z,5.4
2019-02-27T04:37:21.441Z,5.4
2019-02-27T04:38:30.650Z,5.3
2019-02-27T04:39:39.897Z,5.3
2019-02-27T04:40:49.127Z,5.3
2019-02-27T04:41:58.368Z,5.3
2019-02-27T04:43:07.612Z,5.2
2019-02-27T04:44:16.864Z,5.2
2019-02-27T04:45:26.124Z,5.1
2019-02-27T04:46:35.342Z,5.1
2019-02-27T04:47:44.632Z,5.2
2019-02-27T04:48:53.832Z,5.2
2019-02-27T04:50:03.074Z,5.2
2019-02-27T04:51:16.843Z,5.2
2019-02-27T04:52:21.900Z,5.2
2019-02-27T04:53:31.797Z,5.2
2019-02-27T04:54:41.505Z,5.2
2019-02-27T04:55:50.524Z,5.3
2019-02-27T04:56:58.555Z,5.3
2019-02-27T04:58:08.973Z,5.3
2019-02-27T04:59:18.585Z,5.3
2019-02-27T05:00:26.842Z,5.3
2019-02-27T05:01:36.619Z,5.3
2019-02-27T05:02:44.685Z,5.3
2019-02-27T05:03:53.932Z,5.4
2019-02-27T05:05:03.177Z,5.3
2019-02-27T05:06:14.341Z,5.3
2019-02-27T05:07:21.643Z,5.3
2019-02-27T05:08:30.881Z,5.3
2019-02-27T05:09:40.141Z,5.3
2019-02-27T05:10:49.364Z,5.2
2019-02-27T05:11:58.599Z,5.2
2019-02-27T05:13:07.854Z,5.3
2019-02-27T05:14:17.074Z,5.3
2019-02-27T05:15:26.322Z,5.3
2019-02-27T05:16:35.563Z,5.3
2019-02-27T05:17:44.795Z,5.3
2019-02-27T05:18:54.050Z,5.3
2019-02-27T05:20:03.324Z,5.3
2019-02-27T05:21:12.508Z,5.3
2019-02-27T05:22:26.134Z,5.3
2019-02-27T05:23:33.396Z,5.3
2019-02-27T05:24:40.946Z,5.3
2019-02-27T05:25:49.454Z,5.2
2019-02-27T05:27:00.693Z,5.2
2019-02-27T05:28:07.971Z,5.2
2019-02-27T05:29:17.176Z,5.2
2019-02-27T05:30:26.412Z,5.2
2019-02-27T05:31:35.640Z,5.2
2019-02-27T05:32:44.926Z,5.2
2019-02-27T05:33:54.153Z,5.2
2019-02-27T05:35:03.401Z,5.2
2019-02-27T05:36:12.606Z,5.2
2019-02-27T05:37:21.850Z,5.1
2019-02-27T05:38:31.064Z,5.1
2019-02-27T05:39:40.296Z,5.1
2019-02-27T05:40:49.594Z,5.1
2019-02-27T05:42:00.786Z,5.1
2019-02-27T05:43:08.018Z,5.1
2019-02-27T05:44:21.176Z,5.1
2019-02-27T05:45:30.219Z,5.1
2019-02-27T05:46:38.212Z,5.1
2019-02-27T05:47:45.867Z,5.1
2019-02-27T05:48:54.232Z,5
2019-02-27T05:50:03.453Z,5
2019-02-27T05:51:12.678Z,5
2019-02-27T05:52:21.999Z,5
2019-02-27T05:53:31.238Z,5
2019-02-27T05:54:40.377Z,4.9
2019-02-27T05:55:49.633Z,5
2019-02-27T05:56:58.844Z,4.9
2019-02-27T05:58:08.114Z,5
2019-02-27T05:59:17.528Z,5
2019-02-27T06:00:26.606Z,5
2019-02-27T06:01:38.030Z,5
2019-02-27T06:02:45.633Z,4.9
2019-02-27T06:03:54.257Z,5
2019-02-27T06:05:03.532Z,4.9
2019-02-27T06:06:12.739Z,4.9
2019-02-27T06:07:22.004Z,4.9
2019-02-27T06:08:34.833Z,4.9
2019-02-27T06:09:41.385Z,4.9
2019-02-27T06:10:54.982Z,5
2019-02-27T06:11:58.909Z,4.9
2019-02-27T06:13:08.128Z,4.9
2019-02-27T06:14:21.110Z,4.9
2019-02-27T06:15:28.576Z,4.9
2019-02-27T06:16:37.258Z,4.9
2019-02-27T06:17:48.695Z,5
2019-02-27T06:18:56.216Z,4.9
2019-02-27T06:20:07.595Z,4.9
2019-02-27T06:21:13.296Z,4.8
2019-02-27T06:22:22.001Z,4.8
2019-02-27T06:23:31.261Z,4.7
2019-02-27T06:24:40.466Z,4.7
2019-02-27T06:25:49.738Z,4.7
2019-02-27T06:26:58.938Z,4.8
2019-02-27T06:28:08.217Z,4.7
2019-02-27T06:29:17.424Z,4.7
2019-02-27T06:30:27.888Z,4.7
2019-02-27T06:31:38.786Z,4.6
2019-02-27T06:32:45.127Z,4.7
2019-02-27T06:33:54.334Z,4.7
2019-02-27T06:35:03.602Z,4.8
2019-02-27T06:36:12.831Z,4.8
2019-02-27T06:37:22.036Z,4.8
2019-02-27T06:38:31.356Z,4.9
2019-02-27T06:39:40.494Z,4.9
2019-02-27T06:40:49.804Z,4.9
2019-02-27T06:41:58.975Z,5
2019-02-27T06:43:08.289Z,5.1
2019-02-27T06:44:18.990Z,5.1
2019-02-27T06:45:26.685Z,5.2
2019-02-27T06:46:35.935Z,5.2
2019-02-27T06:47:45.113Z,5.2
2019-02-27T06:48:56.315Z,5.4
2019-02-27T06:50:03.587Z,5.5
2019-02-27T06:51:12.831Z,5.6
2019-02-27T06:52:22.114Z,5.7
2019-02-27T06:53:31.401Z,5.6
2019-02-27T06:54:40.598Z,5.6
2019-02-27T06:55:49.897Z,5.6
2019-02-27T06:56:59.015Z,5.8
2019-02-27T06:58:08.252Z,5.9
2019-02-27T06:59:18.166Z,6.1
2019-02-27T07:00:26.909Z,6.2
2019-02-27T07:01:35.986Z,6.3
2019-02-27T07:02:45.228Z,6.5
2019-02-27T07:03:54.467Z,6.5
2019-02-27T07:05:03.714Z,6.5
2019-02-27T07:06:12.965Z,6.6
2019-02-27T07:07:22.285Z,6.7
2019-02-27T07:08:31.487Z,6.8
2019-02-27T07:09:43.163Z,6.7
2019-02-27T07:10:50.034Z,6.7
2019-02-27T07:11:59.222Z,6.7
2019-02-27T07:13:08.478Z,6.7
2019-02-27T07:14:17.795Z,6.7
2019-02-27T07:15:26.998Z,6.7
2019-02-27T07:16:36.252Z,7.1
2019-02-27T07:17:45.520Z,7.4
2019-02-27T07:18:54.797Z,7.5
2019-02-27T07:20:04.076Z,7.6
2019-02-27T07:21:13.301Z,7.5
2019-02-27T07:22:22.574Z,7.6
2019-02-27T07:23:31.866Z,7.9
2019-02-27T07:24:41.134Z,8.3
2019-02-27T07:25:50.401Z,8.2
2019-02-27T07:26:59.700Z,8.3
2019-02-27T07:28:09.248Z,8.6
2019-02-27T07:29:21.513Z,8.8
2019-02-27T07:30:27.516Z,9
2019-02-27T07:31:36.793Z,9.3
2019-02-27T07:32:46.063Z,9.4
2019-02-27T07:33:55.416Z,9.7
2019-02-27T07:35:04.679Z,9.6
2019-02-27T07:36:13.955Z,9.5
2019-02-27T07:37:23.250Z,9.6
2019-02-27T07:38:32.544Z,9.8
2019-02-27T07:39:41.854Z,10
2019-02-27T07:40:51.126Z,9.8
2019-02-27T07:42:00.475Z,9.9
2019-02-27T07:43:09.764Z,10.3
2019-02-27T07:44:19.125Z,10.2
2019-02-27T07:45:28.361Z,10.1
2019-02-27T07:46:37.714Z,10.5
2019-02-27T07:47:47.009Z,10.6
2019-02-27T07:48:57.269Z,10.9
2019-02-27T07:50:08.113Z,11
2019-02-27T07:51:14.963Z,11.1
2019-02-27T07:52:24.392Z,11.3
2019-02-27T07:53:33.592Z,11.2
2019-02-27T07:54:42.921Z,11.5
2019-02-27T07:55:52.339Z,11.6
2019-02-27T07:57:01.613Z,11.6
2019-02-27T07:58:10.944Z,11.9
2019-02-27T07:59:20.262Z,11.9
2019-02-27T08:00:29.612Z,12.1
2019-02-27T08:01:43.620Z,12.3
2019-02-27T08:02:48.319Z,12.1
2019-02-27T08:03:57.653Z,12.1
2019-02-27T08:05:07.009Z,12.1
2019-02-27T08:06:16.514Z,12.2
2019-02-27T08:07:25.738Z,12.2
2019-02-27T08:08:35.089Z,12
2019-02-27T08:09:44.460Z,11.8
2019-02-27T08:10:53.846Z,11.7
2019-02-27T08:12:03.327Z,12
2019-02-27T08:13:12.593Z,12.2
2019-02-27T08:14:21.973Z,12.6
2019-02-27T08:15:31.451Z,12.7
2019-02-27T08:16:40.710Z,13
2019-02-27T08:17:50.132Z,12.9
2019-02-27T08:18:59.472Z,13
2019-02-27T08:20:08.870Z,13.2
2019-02-27T08:21:18.300Z,13.1
2019-02-27T08:22:27.716Z,13.1
2019-02-27T08:23:37.072Z,13.4
2019-02-27T08:24:46.470Z,13.3
2019-02-27T08:25:55.871Z,13.6
2019-02-27T08:27:07.075Z,13.8
2019-02-27T08:28:14.676Z,13.5
2019-02-27T08:29:24.099Z,13.7
2019-02-27T08:30:33.562Z,13.8
2019-02-27T08:31:42.928Z,14.1
2019-02-27T08:32:52.501Z,14.3
2019-02-27T08:34:01.787Z,14.8
2019-02-27T08:35:11.425Z,14.9
2019-02-27T08:36:20.691Z,14.9
2019-02-27T08:37:30.074Z,14.7
2019-02-27T08:38:39.655Z,15
2019-02-27T08:39:48.994Z,15.4
2019-02-27T08:40:58.510Z,14.9
2019-02-27T08:42:07.846Z,15.4
2019-02-27T08:43:17.339Z,15.4
2019-02-27T08:44:26.758Z,15.7
2019-02-27T08:51:23.674Z,16.2
2019-02-27T08:52:33.052Z,16.1
2019-02-27T08:53:42.549Z,15.7
2019-02-27T08:54:52.060Z,15.6
2019-02-27T08:56:01.530Z,15.7
2019-02-27T08:57:11.044Z,15.8
2019-02-27T08:58:20.534Z,16
2019-02-27T08:59:30.031Z,16.5
2019-02-27T09:00:39.542Z,16.1
2019-02-27T09:01:49.075Z,16.4
2019-02-27T09:03:02.320Z,16.1
2019-02-27T09:04:11.160Z,16.6
2019-02-27T09:05:20.010Z,16.6
2019-02-27T09:06:28.109Z,16.7
2019-02-27T09:07:37.014Z,17.1
2019-02-27T09:08:46.280Z,17.3
2019-02-27T09:09:55.743Z,17.4
2019-02-27T09:11:06.444Z,16.8
2019-02-27T09:12:14.849Z,15.5
2019-02-27T09:13:24.394Z,16.1
2019-02-27T09:14:33.902Z,15.9
2019-02-27T09:15:43.523Z,15.4
2019-02-27T09:16:53.060Z,14.9
2019-02-27T09:18:02.644Z,16
2019-02-27T09:20:21.696Z,15.6
2019-02-27T09:21:31.300Z,14.6
2019-02-27T09:22:40.795Z,15
2019-02-27T09:23:50.328Z,15.5
2019-02-27T09:25:00.264Z,15
2019-02-27T09:26:09.509Z,15.2
2019-02-27T09:27:19.021Z,15.7
2019-02-27T09:28:28.560Z,16.1
2019-02-27T09:29:38.126Z,16.5
2019-02-27T09:30:47.685Z,16.5
2019-02-27T09:31:57.257Z,16
2019-02-27T09:33:06.878Z,16.3
2019-02-27T09:34:16.548Z,16.4
2019-02-27T09:35:25.991Z,16.9
2019-02-27T09:36:35.687Z,17.1
2019-02-27T09:37:45.067Z,17.5
2019-02-27T09:38:57.245Z,17.9
2019-02-27T09:40:05.625Z,18.6
2019-02-27T09:41:13.832Z,18
2019-02-27T09:42:23.358Z,18.6
2019-02-27T09:43:32.978Z,18.3
2019-02-27T09:44:42.544Z,18.2
2019-02-27T09:45:52.154Z,18.3
2019-02-27T09:47:01.704Z,18.7
2019-02-27T09:48:11.298Z,18
2019-02-27T09:49:20.941Z,17.6
2019-02-27T09:50:30.480Z,18.2
2019-02-27T09:51:40.107Z,18.1
2019-02-27T09:52:49.723Z,18.5
2019-02-27T09:53:59.279Z,18.7
2019-02-27T09:55:08.911Z,18.8
2019-02-27T09:56:18.543Z,19
2019-02-27T09:57:28.130Z,19.2
2019-02-27T09:58:37.768Z,18.8
2019-02-27T09:59:47.366Z,19.1
2019-02-27T10:01:00.231Z,18.7
2019-02-27T10:02:08.909Z,19.3
2019-02-27T10:03:19.662Z,19.7
2019-02-27T10:04:28.252Z,19.6
2019-02-27T10:05:36.634Z,19.7
2019-02-27T10:06:45.162Z,20.1
2019-02-27T10:07:54.746Z,19.8
2019-02-27T10:09:04.349Z,20.1
2019-02-27T10:10:14.011Z,18.9
2019-02-27T10:11:23.639Z,19.1
2019-02-27T10:12:33.281Z,19
2019-02-27T10:13:42.970Z,18.7
2019-02-27T10:14:52.596Z,18.7
2019-02-27T10:16:03.660Z,18.6
2019-02-27T10:17:11.954Z,19.5
2019-02-27T10:18:22.166Z,19.1
2019-02-27T10:19:31.285Z,19
2019-02-27T10:20:40.860Z,18.4
2019-02-27T10:21:50.557Z,18.6
2019-02-27T10:23:00.172Z,19.1
2019-02-27T10:24:09.847Z,18.4
2019-02-27T10:25:19.488Z,19.6
2019-02-27T10:26:29.144Z,19.9
2019-02-27T10:27:38.893Z,19.4
2019-02-27T10:28:48.466Z,19
2019-02-27T10:29:58.237Z,19.5
2019-02-27T10:31:07.809Z,20
2019-02-27T10:32:17.559Z,20.3
2019-02-27T10:33:27.150Z,20.3
2019-02-27T10:34:36.827Z,20.1
2019-02-27T10:35:46.507Z,20.9
2019-02-27T10:36:56.213Z,20.4
2019-02-27T10:38:05.904Z,20
2019-02-27T10:39:15.585Z,20.1
2019-02-27T10:40:25.344Z,20
2019-02-27T10:41:34.943Z,20.2
2019-02-27T10:42:44.722Z,20
2019-02-27T10:43:56.447Z,19.9
2019-02-27T10:45:04.024Z,20.5
2019-02-27T10:46:13.799Z,21.1
2019-02-27T10:47:23.433Z,20.9
2019-02-27T10:48:33.179Z,21.4
2019-02-27T10:49:42.826Z,20.8
2019-02-27T10:50:52.534Z,21.1
2019-02-27T10:52:02.326Z,21
2019-02-27T10:53:12.012Z,21.2
2019-02-27T10:54:21.789Z,21.3
2019-02-27T10:55:31.436Z,21.9
2019-02-27T10:56:41.148Z,22.6
2019-02-27T10:57:50.893Z,21.8
2019-02-27T10:59:00.611Z,23.3
2019-02-27T11:00:10.345Z,22.6
2019-02-27T11:01:20.160Z,22.6
2019-02-27T11:02:29.878Z,21.6
2019-02-27T11:03:39.601Z,22.1
2019-02-27T11:04:50.033Z,20.5
2019-02-27T11:05:59.111Z,20.7
2019-02-27T11:07:08.930Z,20.8
2019-02-27T11:08:18.624Z,20.6
2019-02-27T11:09:28.490Z,20.8
2019-02-27T11:10:38.176Z,21.5
2019-02-27T11:11:48.717Z,20
2019-02-27T11:12:57.662Z,19.6
2019-02-27T11:14:07.424Z,20.6
2019-02-27T11:15:17.171Z,20.3
2019-02-27T11:16:27.933Z,21.2
2019-02-27T11:17:36.729Z,21.4
2019-02-27T11:18:46.481Z,21.6
2019-02-27T11:19:56.195Z,21.4
2019-02-27T11:21:05.944Z,21.7
2019-02-27T11:22:15.716Z,22.3
2019-02-27T11:23:25.471Z,22.3
2019-02-27T11:24:35.234Z,23
2019-02-27T11:25:45.035Z,22.5
2019-02-27T11:26:56.337Z,23.3
2019-02-27T11:28:04.531Z,23
2019-02-27T11:29:14.329Z,22.7
2019-02-27T11:30:24.147Z,23.5
2019-02-27T11:31:33.866Z,22.1
2019-02-27T11:32:43.683Z,22.4
2019-02-27T11:33:53.445Z,22
2019-02-27T11:35:03.279Z,21.8
2019-02-27T11:36:13.020Z,21.8
2019-02-27T11:37:22.822Z,21.3
2019-02-27T11:38:32.824Z,22.5
2019-02-27T11:39:42.418Z,22.8
2019-02-27T11:40:52.199Z,22.1
2019-02-27T11:42:02.009Z,22.8
2019-02-27T11:43:11.787Z,23.1
2019-02-27T11:44:21.623Z,23.3
2019-02-27T11:45:31.393Z,22.7
2019-02-27T11:46:41.155Z,22.4
2019-02-27T11:47:50.949Z,22.9
2019-02-27T11:49:02.964Z,23.1
2019-02-27T11:50:10.568Z,23.1
2019-02-27T11:51:20.871Z,22.3
2019-02-27T11:52:30.172Z,22
2019-02-27T11:53:39.999Z,22.8
2019-02-27T11:54:49.817Z,22.4
2019-02-27T11:55:59.592Z,23.2
2019-02-27T11:57:09.474Z,23.2
2019-02-27T11:58:19.308Z,22.6
2019-02-27T11:59:29.037Z,23.4
2019-02-27T12:00:38.846Z,23.2
2019-02-27T12:01:48.785Z,22.9
2019-02-27T12:02:58.487Z,22.2
2019-02-27T12:04:08.443Z,21.6
2019-02-27T12:05:18.136Z,21.6
2019-02-27T12:06:27.978Z,21.6
2019-02-27T12:07:37.779Z,21.8
2019-02-27T12:08:47.607Z,22.1
2019-02-27T12:09:57.421Z,22.3
2019-02-27T12:11:09.669Z,22.4
2019-02-27T12:12:17.071Z,22.8
2019-02-27T12:13:26.899Z,22.6
2019-02-27T12:14:36.724Z,22.4
2019-02-27T12:15:47.820Z,22.2
2019-02-27T12:16:57.638Z,21.8
2019-02-27T12:18:07.448Z,21.5
2019-02-27T12:19:17.307Z,21.8
2019-02-27T12:20:27.189Z,22.8
2019-02-27T12:21:36.984Z,22.4
2019-02-27T12:22:46.782Z,22.9
2019-02-27T12:23:56.652Z,22.8
2019-02-27T12:25:06.472Z,23.4
2019-02-27T12:26:16.328Z,23.5
2019-02-27T12:27:47.699Z,23.6
2019-02-27T12:28:35.899Z,22.9
2019-02-27T12:29:45.738Z,22.8
2019-02-27T12:30:55.574Z,22.4
2019-02-27T12:32:06.139Z,23.1
2019-02-27T12:33:15.263Z,23.9
2019-02-27T12:34:25.230Z,23.8
2019-02-27T12:35:34.963Z,23.4
2019-02-27T12:36:45.026Z,22.6
2019-02-27T12:37:54.650Z,23.3
2019-02-27T12:39:04.472Z,21.6
2019-02-27T12:40:14.338Z,22.8
2019-02-27T12:41:24.188Z,22.5
2019-02-27T12:42:37.205Z,23
2019-02-27T12:43:43.894Z,23
2019-02-27T12:44:54.539Z,21.7
2019-02-27T12:46:03.557Z,21.3
2019-02-27T12:47:13.465Z,20.9
2019-02-27T12:48:23.287Z,21.6
2019-02-27T12:49:33.129Z,22
2019-02-27T12:50:42.930Z,22
2019-02-27T12:51:52.820Z,21.9
2019-02-27T12:53:02.611Z,22.2
2019-02-27T12:54:12.430Z,21.7
2019-02-27T12:55:22.387Z,22
2019-02-27T12:56:32.162Z,21.8
2019-02-27T12:57:42.035Z,22.1
2019-02-27T12:58:51.752Z,22.4
2019-02-27T13:00:01.583Z,21.5
2019-02-27T13:01:16.107Z,21.9
2019-02-27T13:02:24.402Z,22.2
2019-02-27T13:03:31.163Z,21.9
2019-02-27T13:04:40.901Z,21.6
2019-02-27T13:05:50.799Z,22.1
2019-02-27T13:07:00.643Z,22.9
2019-02-27T13:08:11.312Z,22.2
2019-02-27T13:09:20.234Z,22.6
2019-02-27T13:10:33.984Z,22.2
2019-02-27T13:11:41.627Z,22.5
2019-02-27T13:12:51.847Z,22.7
2019-02-27T13:13:59.741Z,22.6
2019-02-27T13:15:09.460Z,21.3
2019-02-27T13:16:19.316Z,21.6
2019-02-27T13:17:29.157Z,21.8
2019-02-27T13:18:39.010Z,21.7
2019-02-27T13:19:48.819Z,22
2019-02-27T13:20:58.640Z,20.7
2019-02-27T13:22:08.463Z,20.9
2019-02-27T13:23:18.314Z,20.9
2019-02-27T13:24:28.147Z,21.3
2019-02-27T13:25:37.971Z,21.5
2019-02-27T13:26:47.831Z,21.4
2019-02-27T13:27:57.581Z,21
2019-02-27T13:29:07.405Z,20.9
2019-02-27T13:30:17.272Z,21.6
2019-02-27T13:31:27.083Z,22.3
2019-02-27T13:32:36.866Z,22.4
2019-02-27T13:33:46.678Z,21.8
2019-02-27T13:34:56.446Z,21.9
2019-02-27T13:36:06.339Z,21.4
2019-02-27T13:37:16.046Z,21.7
2019-02-27T13:38:25.854Z,21.3
2019-02-27T13:39:35.786Z,21.8
2019-02-27T13:40:45.449Z,21.7
2019-02-27T13:41:55.273Z,22
2019-02-27T13:43:05.067Z,21.3
2019-02-27T13:44:14.894Z,21.6
2019-02-27T13:45:24.655Z,21.2
2019-02-27T13:46:34.437Z,21.5
2019-02-27T13:47:44.300Z,20.7
2019-02-27T13:48:54.015Z,20
2019-02-27T13:50:03.811Z,20.3
2019-02-27T13:51:13.614Z,20.2
2019-02-27T13:52:23.370Z,20.9
2019-02-27T13:53:33.153Z,20.4
2019-02-27T13:54:42.919Z,20.6
2019-02-27T13:55:52.709Z,19.7
2019-02-27T13:57:02.643Z,20.2
2019-02-27T13:58:12.229Z,20
2019-02-27T13:59:22.066Z,19.4
2019-02-27T14:00:31.753Z,19.4
2019-02-27T14:01:41.517Z,19.9
2019-02-27T14:02:51.320Z,20.2
2019-02-27T14:04:00.977Z,20.2
2019-02-27T14:05:10.756Z,20.2
2019-02-27T14:06:20.619Z,20
2019-02-27T14:07:30.217Z,19.7
2019-02-27T14:08:39.946Z,19.7
2019-02-27T14:09:49.699Z,19.6
2019-02-27T14:10:59.506Z,19.9
2019-02-27T14:12:09.139Z,20
2019-02-27T14:13:18.867Z,20.1
2019-02-27T14:14:28.595Z,19.7
2019-02-27T14:15:38.321Z,19.9
2019-02-27T14:16:49.292Z,19.7
2019-02-27T14:17:57.771Z,19.6
2019-02-27T14:19:07.482Z,19.4
2019-02-27T14:20:17.282Z,19.5
2019-02-27T14:21:26.918Z,19.6
2019-02-27T14:22:40.235Z,19.5
2019-02-27T14:23:48.012Z,19.3
2019-02-27T14:24:58.348Z,19.2
2019-02-27T14:26:09.057Z,20
2019-02-27T14:27:16.850Z,20.3
2019-02-27T14:28:26.515Z,20.1
2019-02-27T14:29:36.248Z,19.7
2019-02-27T14:30:45.921Z,19.6
2019-02-27T14:31:55.691Z,19.6
2019-02-27T14:33:05.351Z,19.8
2019-02-27T14:34:15.029Z,19.6
2019-02-27T14:35:25.218Z,19.8
2019-02-27T14:36:34.488Z,19.9
2019-02-27T14:37:44.231Z,19.8
2019-02-27T14:38:56.463Z,19.5
2019-02-27T14:40:04.274Z,19.4
2019-02-27T14:41:14.341Z,19.7
2019-02-27T14:42:22.919Z,19.9
2019-02-27T14:43:32.616Z,20
2019-02-27T14:44:42.426Z,19.9
2019-02-27T14:45:52.001Z,19.7
2019-02-27T14:47:01.705Z,19.4
2019-02-27T14:48:11.374Z,19.5
2019-02-27T14:49:23.834Z,19.4
2019-02-27T14:50:33.342Z,19.2
2019-02-27T14:51:41.116Z,19
2019-02-27T14:52:50.160Z,18.8
2019-02-27T14:53:59.788Z,19.1
2019-02-27T14:55:09.449Z,18.7
2019-02-27T14:56:19.114Z,18.5
2019-02-27T14:57:28.808Z,18.1
2019-02-27T14:58:38.456Z,18.1
2019-02-27T14:59:48.132Z,18.6
2019-02-27T15:00:57.843Z,19
2019-02-27T15:02:07.423Z,19
2019-02-27T15:03:17.074Z,19.1
2019-02-27T15:04:26.744Z,19.2
2019-02-27T15:05:36.713Z,19.2
2019-02-27T15:06:46.016Z,19.3
2019-02-27T15:07:55.658Z,19.6
2019-02-27T15:09:06.315Z,19.4
2019-02-27T15:10:14.947Z,19.1
2019-02-27T15:11:24.609Z,19
2019-02-27T15:12:34.243Z,19
2019-02-27T15:13:44.191Z,18.8
2019-02-27T15:14:53.520Z,18.8
2019-02-27T15:16:03.167Z,18.6
2019-02-27T15:17:12.832Z,18.2
2019-02-27T15:18:23.126Z,18.7
2019-02-27T15:19:32.060Z,18.5
2019-02-27T15:20:41.886Z,18.4
2019-02-27T15:21:51.365Z,18.2
2019-02-27T15:23:01.089Z,18.4
2019-02-27T15:24:10.619Z,18.3
2019-02-27T15:26:29.882Z,18.1
2019-02-27T15:27:39.469Z,17.7
2019-02-27T15:28:49.062Z,17.3
2019-02-27T15:29:58.732Z,17.4
2019-02-27T15:31:08.303Z,17.1
2019-02-27T15:32:17.910Z,17.1
2019-02-27T15:33:27.574Z,17.7
2019-02-27T15:34:37.122Z,17.4
2019-02-27T15:35:46.728Z,17.1
2019-02-27T15:36:56.614Z,16.8
2019-02-27T15:38:05.935Z,16.9
2019-02-27T15:39:20.114Z,17.2
2019-02-27T15:40:28.283Z,17.6
2019-02-27T15:41:35.303Z,17.4
2019-02-27T15:42:44.328Z,17.1
2019-02-27T15:43:59.960Z,17.3
2019-02-27T15:45:09.013Z,17.4
2019-02-27T15:46:13.113Z,17.5
2019-02-27T15:47:22.683Z,17.8
2019-02-27T15:48:32.303Z,17.4
2019-02-27T15:49:41.980Z,17.2
2019-02-27T15:50:51.952Z,17
2019-02-27T15:52:06.390Z,16.9
2019-02-27T15:53:14.493Z,16.9